sensor_id;sensor_type;location;lat;lon;timestamp;pressure;altitude;pressure_sealevel;temperature;humidity
43818;BME280;29868;47.360;18.984;2023-05-15T00:02:10;99614.03;;;12.85;100.00
43818;BME280;29868;47.360;18.984;2023-05-15T00:04:37;99625.28;;;12.97;100.00
43818;BME280;29868;47.360;18.984;2023-05-15T00:07:02;99627.88;;;12.97;100.00
43818;BME280;29868;47.360;18.984;2023-05-15T00:09:28;99626.19;;;12.89;100.00
43818;BME280;29868;47.360;18.984;2023-05-15T00:11:53;99628.81;;;12.85;100.00
43818;BME280;29868;47.360;18.984;2023-05-15T00:14:18;99635.75;;;12.83;100.00
43818;BME280;29868;47.360;18.984;2023-05-15T00:16:44;99636.53;;;13.02;100.00
43818;BME280;29868;47.360;18.984;2023-05-15T00:19:09;99642.63;;;12.98;100.00
43818;BME280;29868;47.360;18.984;2023-05-15T00:21:35;99636.56;;;12.97;100.00
43818;BME280;29868;47.360;18.984;2023-05-15T00:24:00;99646.13;;;12.97;100.00
43818;BME280;29868;47.360;18.984;2023-05-15T00:26:25;99642.63;;;13.04;100.00
43818;BME280;29868;47.360;18.984;2023-05-15T00:28:51;99639.13;;;13.02;100.00
43818;BME280;29868;47.360;18.984;2023-05-15T00:31:16;99645.31;;;12.88;100.00
43818;BME280;29868;47.360;18.984;2023-05-15T00:33:42;99644.34;;;13.02;100.00
43818;BME280;29868;47.360;18.984;2023-05-15T00:36:07;99638.31;;;12.97;100.00
43818;BME280;29868;47.360;18.984;2023-05-15T00:38:33;99625.22;;;13.03;100.00
43818;BME280;29868;47.360;18.984;2023-05-15T00:41:00;99624.38;;;12.99;100.00
43818;BME280;29868;47.360;18.984;2023-05-15T00:43:25;99626.97;;;13.04;100.00
43818;BME280;29868;47.360;18.984;2023-05-15T00:45:53;99624.38;;;13.04;100.00
43818;BME280;29868;47.360;18.984;2023-05-15T00:48:19;99628.75;;;12.94;100.00
43818;BME280;29868;47.360;18.984;2023-05-15T00:50:49;99629.53;;;13.10;100.00
43818;BME280;29868;47.360;18.984;2023-05-15T00:53:16;99620.88;;;13.02;100.00
43818;BME280;29868;47.360;18.984;2023-05-15T00:55:46;99612.22;;;13.00;100.00
43818;BME280;29868;47.360;18.984;2023-05-15T00:58:14;99614.78;;;13.03;100.00
43818;BME280;29868;47.360;18.984;2023-05-15T01:00:41;99610.53;;;12.89;100.00
43818;BME280;29868;47.360;18.984;2023-05-15T01:03:07;99598.38;;;12.88;100.00
43818;BME280;29868;47.360;18.984;2023-05-15T01:05:32;99596.69;;;12.81;100.00
43818;BME280;29868;47.360;18.984;2023-05-15T01:10:47;99595.75;;;12.93;100.00
43818;BME280;29868;47.360;18.984;2023-05-15T01:13:19;99592.28;;;12.96;100.00
43818;BME280;29868;47.360;18.984;2023-05-15T01:15:46;99581.88;;;12.89;100.00
43818;BME280;29868;47.360;18.984;2023-05-15T01:18:11;99583.63;;;12.83;100.00
43818;BME280;29868;47.360;18.984;2023-05-15T01:21:00;99582.78;;;12.81;100.00
43818;BME280;29868;47.360;18.984;2023-05-15T01:29:07;99596.69;;;12.84;100.00
43818;BME280;29868;47.360;18.984;2023-05-15T01:31:34;99582.78;;;12.76;100.00
43818;BME280;29868;47.360;18.984;2023-05-15T01:34:02;99593.19;;;12.82;100.00
43818;BME280;29868;47.360;18.984;2023-05-15T01:36:52;99579.34;;;12.77;100.00
43818;BME280;29868;47.360;18.984;2023-05-15T01:39:22;99572.38;;;12.81;100.00
43818;BME280;29868;47.360;18.984;2023-05-15T01:41:54;99564.56;;;12.78;100.00
43818;BME280;29868;47.360;18.984;2023-05-15T01:44:27;99563.72;;;12.71;100.00
43818;BME280;29868;47.360;18.984;2023-05-15T01:46:56;99560.28;;;12.66;100.00
43818;BME280;29868;47.360;18.984;2023-05-15T01:49:26;99561.13;;;12.68;100.00
43818;BME280;29868;47.360;18.984;2023-05-15T01:51:58;99555.88;;;12.79;100.00
43818;BME280;29868;47.360;18.984;2023-05-15T01:54:27;99556.78;;;12.69;100.00
43818;BME280;29868;47.360;18.984;2023-05-15T01:56:54;99564.59;;;12.72;100.00
43818;BME280;29868;47.360;18.984;2023-05-15T01:59:20;99577.59;;;12.76;100.00
43818;BME280;29868;47.360;18.984;2023-05-15T02:01:47;99575.84;;;12.78;100.00
43818;BME280;29868;47.360;18.984;2023-05-15T02:04:14;99581.91;;;12.82;100.00
43818;BME280;29868;47.360;18.984;2023-05-15T02:06:41;99586.28;;;12.78;100.00
43818;BME280;29868;47.360;18.984;2023-05-15T02:09:07;99588.00;;;12.79;100.00
43818;BME280;29868;47.360;18.984;2023-05-15T02:11:34;99599.28;;;12.84;100.00
43818;BME280;29868;47.360;18.984;2023-05-15T02:14:00;99594.78;;;13.08;100.00
43818;BME280;29868;47.360;18.984;2023-05-15T02:16:26;99595.75;;;12.91;100.00
43818;BME280;29868;47.360;18.984;2023-05-15T02:18:52;99613.16;;;12.89;100.00
43818;BME280;29868;47.360;18.984;2023-05-15T02:21:17;99616.59;;;12.93;100.00
43818;BME280;29868;47.360;18.984;2023-05-15T02:23:43;99616.59;;;12.96;100.00
43818;BME280;29868;47.360;18.984;2023-05-15T02:37:03;99611.38;;;12.91;100.00
43818;BME280;29868;47.360;18.984;2023-05-15T02:39:32;99613.13;;;12.96;100.00
43818;BME280;29868;47.360;18.984;2023-05-15T02:41:59;99606.16;;;12.95;100.00
43818;BME280;29868;47.360;18.984;2023-05-15T02:44:25;99603.53;;;13.01;100.00
43818;BME280;29868;47.360;18.984;2023-05-15T02:46:52;99614.75;;;13.09;100.00
43818;BME280;29868;47.360;18.984;2023-05-15T02:49:19;99604.25;;;13.23;100.00
43818;BME280;29868;47.360;18.984;2023-05-15T02:51:45;99592.91;;;13.31;100.00
43818;BME280;29868;47.360;18.984;2023-05-15T02:54:10;99585.19;;;13.10;100.00
43818;BME280;29868;47.360;18.984;2023-05-15T02:56:35;99587.84;;;13.07;100.00
43818;BME280;29868;47.360;18.984;2023-05-15T02:59:01;99595.66;;;13.07;100.00
43818;BME280;29868;47.360;18.984;2023-05-15T03:01:27;99592.22;;;13.02;100.00
43818;BME280;29868;47.360;18.984;2023-05-15T03:03:52;99584.47;;;12.93;100.00
43818;BME280;29868;47.360;18.984;2023-05-15T03:06:17;99587.91;;;12.95;100.00
43818;BME280;29868;47.360;18.984;2023-05-15T03:08:43;99581.84;;;12.93;100.00
43818;BME280;29868;47.360;18.984;2023-05-15T03:11:09;99574.13;;;12.77;100.00
43818;BME280;29868;47.360;18.984;2023-05-15T03:13:34;99567.97;;;12.86;100.00
43818;BME280;29868;47.360;18.984;2023-05-15T03:16:00;99567.84;;;13.07;100.00
43818;BME280;29868;47.360;18.984;2023-05-15T03:18:25;99559.91;;;13.27;100.00
43818;BME280;29868;47.360;18.984;2023-05-15T03:20:51;99559.91;;;13.24;100.00
43818;BME280;29868;47.360;18.984;2023-05-15T03:23:16;99546.88;;;13.21;100.00
43818;BME280;29868;47.360;18.984;2023-05-15T03:25:42;99530.50;;;12.99;100.00
43818;BME280;29868;47.360;18.984;2023-05-15T03:28:07;99529.63;;;13.02;100.00
43818;BME280;29868;47.360;18.984;2023-05-15T03:30:33;99529.63;;;13.02;100.00
43818;BME280;29868;47.360;18.984;2023-05-15T03:32:58;99528.81;;;12.97;100.00
43818;BME280;29868;47.360;18.984;2023-05-15T03:35:24;99523.47;;;13.12;100.00
43818;BME280;29868;47.360;18.984;2023-05-15T03:37:50;99516.69;;;12.93;100.00
43818;BME280;29868;47.360;18.984;2023-05-15T03:40:15;99524.50;;;12.93;100.00
43818;BME280;29868;47.360;18.984;2023-05-15T03:42:41;99520.13;;;12.96;100.00
43818;BME280;29868;47.360;18.984;2023-05-15T03:45:08;99533.19;;;12.93;100.00
43818;BME280;29868;47.360;18.984;2023-05-15T03:47:34;99537.53;;;12.96;100.00
43818;BME280;29868;47.360;18.984;2023-05-15T03:49:59;99535.72;;;13.02;100.00
43818;BME280;29868;47.360;18.984;2023-05-15T03:52:25;99533.13;;;13.04;100.00
43818;BME280;29868;47.360;18.984;2023-05-15T03:54:50;99520.13;;;12.98;100.00
43818;BME280;29868;47.360;18.984;2023-05-15T03:57:15;99520.91;;;13.07;100.00
43818;BME280;29868;47.360;18.984;2023-05-15T03:59:41;99516.56;;;13.08;100.00
43818;BME280;29868;47.360;18.984;2023-05-15T04:02:06;99518.16;;;13.30;100.00
43818;BME280;29868;47.360;18.984;2023-05-15T04:04:32;99512.97;;;13.24;100.00
43818;BME280;29868;47.360;18.984;2023-05-15T04:06:57;99507.75;;;13.21;100.00
43818;BME280;29868;47.360;18.984;2023-05-15T04:09:23;99506.72;;;13.44;100.00
43818;BME280;29868;47.360;18.984;2023-05-15T04:11:48;99494.72;;;13.21;100.00
43818;BME280;29868;47.360;18.984;2023-05-15T04:14:13;99500.75;;;13.29;100.00
43818;BME280;29868;47.360;18.984;2023-05-15T04:16:39;99508.56;;;13.34;100.00
43818;BME280;29868;47.360;18.984;2023-05-15T04:19:04;99508.47;;;13.43;100.00
43818;BME280;29868;47.360;18.984;2023-05-15T04:21:30;99497.25;;;13.32;100.00
43818;BME280;29868;47.360;18.984;2023-05-15T04:23:55;99499.91;;;13.30;100.00
43818;BME280;29868;47.360;18.984;2023-05-15T04:26:21;99515.38;;;13.47;100.00
43818;BME280;29868;47.360;18.984;2023-05-15T04:28:46;99526.63;;;13.54;100.00
43818;BME280;29868;47.360;18.984;2023-05-15T04:31:11;99532.63;;;13.62;100.00
43818;BME280;29868;47.360;18.984;2023-05-15T04:33:37;99524.84;;;13.56;100.00
43818;BME280;29868;47.360;18.984;2023-05-15T04:36:04;99523.00;;;13.67;100.00
43818;BME280;29868;47.360;18.984;2023-05-15T04:38:30;99528.16;;;13.73;100.00
43818;BME280;29868;47.360;18.984;2023-05-15T04:40:56;99527.25;;;13.77;100.00
43818;BME280;29868;47.360;18.984;2023-05-15T04:43:21;99529.78;;;13.82;100.00
43818;BME280;29868;47.360;18.984;2023-05-15T04:45:47;99536.84;;;13.74;100.00
43818;BME280;29868;47.360;18.984;2023-05-15T04:48:12;99558.50;;;13.83;100.00
43818;BME280;29868;47.360;18.984;2023-05-15T04:50:38;99568.03;;;13.87;100.00
43818;BME280;29868;47.360;18.984;2023-05-15T04:53:03;99561.00;;;13.93;100.00
43818;BME280;29868;47.360;18.984;2023-05-15T04:55:28;99564.47;;;13.96;100.00
43818;BME280;29868;47.360;18.984;2023-05-15T04:57:54;99565.31;;;13.97;100.00
43818;BME280;29868;47.360;18.984;2023-05-15T05:00:19;99576.59;;;14.02;100.00
43818;BME280;29868;47.360;18.984;2023-05-15T05:02:45;99575.66;;;14.07;100.00
43818;BME280;29868;47.360;18.984;2023-05-15T05:05:10;99576.41;;;14.19;100.00
43818;BME280;29868;47.360;18.984;2023-05-15T05:07:38;99574.63;;;14.22;100.00
43818;BME280;29868;47.360;18.984;2023-05-15T05:10:04;99578.06;;;14.24;100.00
43818;BME280;29868;47.360;18.984;2023-05-15T05:12:30;99581.50;;;14.28;100.00
43818;BME280;29868;47.360;18.984;2023-05-15T05:14:55;99587.81;;;14.08;100.00
43818;BME280;29868;47.360;18.984;2023-05-15T05:17:21;99593.78;;;14.21;100.00
43818;BME280;29868;47.360;18.984;2023-05-15T05:19:46;99596.28;;;14.30;100.00
43818;BME280;29868;47.360;18.984;2023-05-15T05:22:12;99580.41;;;14.47;100.00
43818;BME280;29868;47.360;18.984;2023-05-15T05:24:37;99581.06;;;14.65;100.00
43818;BME280;29868;47.360;18.984;2023-05-15T05:27:03;99581.09;;;14.63;100.00
43818;BME280;29868;47.360;18.984;2023-05-15T05:29:29;99579.59;;;14.42;100.00
43818;BME280;29868;47.360;18.984;2023-05-15T05:31:55;99574.44;;;14.38;100.00
43818;BME280;29868;47.360;18.984;2023-05-15T05:34:20;99577.00;;;14.39;100.00
43818;BME280;29868;47.360;18.984;2023-05-15T05:36:46;99575.22;;;14.43;100.00
43818;BME280;29868;47.360;18.984;2023-05-15T05:39:12;99576.09;;;14.45;100.00
43818;BME280;29868;47.360;18.984;2023-05-15T05:41:37;99582.03;;;14.57;100.00
43818;BME280;29868;47.360;18.984;2023-05-15T05:44:02;99586.13;;;14.78;100.00
43818;BME280;29868;47.360;18.984;2023-05-15T05:46:28;99589.47;;;14.90;100.00
43818;BME280;29868;47.360;18.984;2023-05-15T05:48:53;99591.25;;;15.42;100.00
43818;BME280;29868;47.360;18.984;2023-05-15T05:51:19;99605.66;;;15.70;100.00
43818;BME280;29868;47.360;18.984;2023-05-15T05:53:44;99609.72;;;15.87;100.00
43818;BME280;29868;47.360;18.984;2023-05-15T05:56:10;99609.28;;;16.10;100.00
43818;BME280;29868;47.360;18.984;2023-05-15T05:58:35;99607.66;;;16.04;100.00
43818;BME280;29868;47.360;18.984;2023-05-15T06:01:01;99595.44;;;16.04;100.00
43818;BME280;29868;47.360;18.984;2023-05-15T06:03:27;99598.50;;;15.78;100.00
43818;BME280;29868;47.360;18.984;2023-05-15T06:05:52;99603.06;;;15.69;100.00
43818;BME280;29868;47.360;18.984;2023-05-15T06:08:18;99607.63;;;15.53;100.00
43818;BME280;29868;47.360;18.984;2023-05-15T06:10:44;99609.53;;;15.45;100.00
43818;BME280;29868;47.360;18.984;2023-05-15T06:13:10;99611.88;;;15.60;100.00
43818;BME280;29868;47.360;18.984;2023-05-15T06:15:36;99624.09;;;16.12;100.00
43818;BME280;29868;47.360;18.984;2023-05-15T06:18:02;99614.72;;;16.44;100.00
43818;BME280;29868;47.360;18.984;2023-05-15T06:20:27;99625.00;;;16.56;100.00
43818;BME280;29868;47.360;18.984;2023-05-15T06:22:53;99635.34;;;16.62;100.00
43818;BME280;29868;47.360;18.984;2023-05-15T06:25:18;99629.78;;;16.34;100.00
43818;BME280;29868;47.360;18.984;2023-05-15T06:27:44;99626.38;;;16.30;100.00
43818;BME280;29868;47.360;18.984;2023-05-15T06:30:10;99620.88;;;16.44;100.00
43818;BME280;29868;47.360;18.984;2023-05-15T06:32:35;99615.31;;;17.00;100.00
43818;BME280;29868;47.360;18.984;2023-05-15T06:35:01;99612.13;;;17.62;100.00
43818;BME280;29868;47.360;18.984;2023-05-15T06:37:27;99608.19;;;17.80;100.00
43818;BME280;29868;47.360;18.984;2023-05-15T06:39:53;99609.47;;;18.30;100.00
43818;BME280;29868;47.360;18.984;2023-05-15T06:42:18;99613.09;;;18.56;100.00
43818;BME280;29868;47.360;18.984;2023-05-15T06:44:44;99614.16;;;18.50;100.00
43818;BME280;29868;47.360;18.984;2023-05-15T06:47:11;99605.13;;;18.59;100.00
43818;BME280;29868;47.360;18.984;2023-05-15T06:49:36;99593.84;;;18.24;100.00
43818;BME280;29868;47.360;18.984;2023-05-15T06:52:02;99606.81;;;17.63;100.00
43818;BME280;29868;47.360;18.984;2023-05-15T06:54:27;99605.19;;;17.58;100.00
43818;BME280;29868;47.360;18.984;2023-05-15T06:56:53;99600.91;;;17.54;100.00
43818;BME280;29868;47.360;18.984;2023-05-15T06:59:19;99600.09;;;17.87;100.00
43818;BME280;29868;47.360;18.984;2023-05-15T07:01:44;99617.31;;;18.32;100.00
43818;BME280;29868;47.360;18.984;2023-05-15T07:04:10;99622.53;;;18.63;100.00
43818;BME280;29868;47.360;18.984;2023-05-15T07:06:36;99622.81;;;18.85;100.00
43818;BME280;29868;47.360;18.984;2023-05-15T07:09:01;99623.50;;;18.91;100.00
43818;BME280;29868;47.360;18.984;2023-05-15T07:11:27;99622.25;;;19.31;100.00
43818;BME280;29868;47.360;18.984;2023-05-15T07:13:53;99627.94;;;18.89;100.00
43818;BME280;29868;47.360;18.984;2023-05-15T07:16:19;99636.44;;;18.68;100.00
43818;BME280;29868;47.360;18.984;2023-05-15T07:18:45;99651.66;;;17.91;100.00
43818;BME280;29868;47.360;18.984;2023-05-15T07:21:10;99652.56;;;17.90;100.00
43818;BME280;29868;47.360;18.984;2023-05-15T07:23:36;99657.31;;;17.74;100.00
43818;BME280;29868;47.360;18.984;2023-05-15T07:26:01;99656.06;;;17.91;100.00
43818;BME280;29868;47.360;18.984;2023-05-15T07:28:26;99660.94;;;17.69;100.00
43818;BME280;29868;47.360;18.984;2023-05-15T07:30:52;99653.25;;;17.63;100.00
43818;BME280;29868;47.360;18.984;2023-05-15T07:33:17;99640.59;;;17.43;100.00
43818;BME280;29868;47.360;18.984;2023-05-15T07:35:43;99631.44;;;17.59;100.00
43818;BME280;29868;47.360;18.984;2023-05-15T07:38:08;99621.69;;;17.29;100.00
43818;BME280;29868;47.360;18.984;2023-05-15T07:40:34;99615.38;;;17.71;100.00
43818;BME280;29868;47.360;18.984;2023-05-15T07:42:59;99624.00;;;17.77;100.00
43818;BME280;29868;47.360;18.984;2023-05-15T07:45:25;99621.91;;;18.55;100.00
43818;BME280;29868;47.360;18.984;2023-05-15T07:47:50;99613.00;;;18.60;100.00
43818;BME280;29868;47.360;18.984;2023-05-15T07:50:16;99619.56;;;19.33;100.00
43818;BME280;29868;47.360;18.984;2023-05-15T07:52:42;99626.53;;;19.62;100.00
43818;BME280;29868;47.360;18.984;2023-05-15T07:55:09;99627.22;;;19.40;100.00
43818;BME280;29868;47.360;18.984;2023-05-15T07:57:34;99636.56;;;18.63;100.00
43818;BME280;29868;47.360;18.984;2023-05-15T08:00:00;99656.56;;;18.69;100.00
43818;BME280;29868;47.360;18.984;2023-05-15T08:02:31;99657.38;;;19.02;100.00
43818;BME280;29868;47.360;18.984;2023-05-15T08:04:56;99652.13;;;19.02;100.00
43818;BME280;29868;47.360;18.984;2023-05-15T08:07:21;99649.72;;;19.51;100.00
43818;BME280;29868;47.360;18.984;2023-05-15T08:09:47;99656.56;;;19.56;100.00
43818;BME280;29868;47.360;18.984;2023-05-15T08:12:21;99655.75;;;18.98;100.00
43818;BME280;29868;47.360;18.984;2023-05-15T08:14:50;99649.59;;;18.99;100.00
43818;BME280;29868;47.360;18.984;2023-05-15T08:17:17;99650.81;;;19.15;100.00
43818;BME280;29868;47.360;18.984;2023-05-15T08:19:43;99664.44;;;19.00;100.00
43818;BME280;29868;47.360;18.984;2023-05-15T08:22:08;99669.00;;;19.25;100.00
43818;BME280;29868;47.360;18.984;2023-05-15T08:24:34;99660.03;;;19.01;100.00
43818;BME280;29868;47.360;18.984;2023-05-15T08:26:59;99669.59;;;19.61;100.00
43818;BME280;29868;47.360;18.984;2023-05-15T08:29:25;99670.19;;;20.22;100.00
43818;BME280;29868;47.360;18.984;2023-05-15T08:31:51;99668.75;;;20.38;100.00
43818;BME280;29868;47.360;18.984;2023-05-15T08:34:16;99658.03;;;21.13;100.00
43818;BME280;29868;47.360;18.984;2023-05-15T08:36:42;99663.25;;;21.38;100.00
43818;BME280;29868;47.360;18.984;2023-05-15T08:39:07;99658.84;;;21.39;100.00
43818;BME280;29868;47.360;18.984;2023-05-15T08:42:01;99659.44;;;21.00;100.00
43818;BME280;29868;47.360;18.984;2023-05-15T08:44:29;99658.00;;;21.15;100.00
43818;BME280;29868;47.360;18.984;2023-05-15T08:46:56;99651.72;;;21.41;100.00
43818;BME280;29868;47.360;18.984;2023-05-15T08:52:06;99654.44;;;21.82;100.00
43818;BME280;29868;47.360;18.984;2023-05-15T08:54:32;99644.03;;;22.20;100.00
43818;BME280;29868;47.360;18.984;2023-05-15T08:56:58;99652.34;;;22.31;100.00
43818;BME280;29868;47.360;18.984;2023-05-15T08:59:24;99651.72;;;22.65;100.00
43818;BME280;29868;47.360;18.984;2023-05-15T09:01:50;99652.66;;;22.25;100.00
43818;BME280;29868;47.360;18.984;2023-05-15T09:04:15;99654.19;;;22.08;100.00
43818;BME280;29868;47.360;18.984;2023-05-15T09:06:42;99669.28;;;22.06;100.00
43818;BME280;29868;47.360;18.984;2023-05-15T09:09:08;99668.16;;;21.70;100.00
43818;BME280;29868;47.360;18.984;2023-05-15T09:11:40;99663.94;;;21.44;100.00
43818;BME280;29868;47.360;18.984;2023-05-15T09:14:07;99670.53;;;21.32;100.00
43818;BME280;29868;47.360;18.984;2023-05-15T09:16:33;99674.25;;;21.04;100.00
43818;BME280;29868;47.360;18.984;2023-05-15T09:18:59;99677.22;;;20.72;100.00
43818;BME280;29868;47.360;18.984;2023-05-15T09:21:26;99676.47;;;20.68;100.00
43818;BME280;29868;47.360;18.984;2023-05-15T09:23:54;99684.53;;;20.88;100.00
43818;BME280;29868;47.360;18.984;2023-05-15T09:26:19;99693.41;;;21.09;100.00
43818;BME280;29868;47.360;18.984;2023-05-15T09:28:47;99688.34;;;21.27;100.00
43818;BME280;29868;47.360;18.984;2023-05-15T09:31:13;99691.78;;;21.29;100.00
43818;BME280;29868;47.360;18.984;2023-05-15T09:33:39;99700.03;;;20.98;100.00
43818;BME280;29868;47.360;18.984;2023-05-15T09:36:07;99702.38;;;20.82;100.00
43818;BME280;29868;47.360;18.984;2023-05-15T09:38:41;99709.03;;;21.39;100.00
43818;BME280;29868;47.360;18.984;2023-05-15T09:41:07;99701.19;;;21.37;100.00
43818;BME280;29868;47.360;18.984;2023-05-15T09:43:37;99702.22;;;21.33;100.00
43818;BME280;29868;47.360;18.984;2023-05-15T09:46:03;99697.16;;;21.04;100.00
43818;BME280;29868;47.360;18.984;2023-05-15T09:48:29;99689.53;;;20.73;100.00
43818;BME280;29868;47.360;18.984;2023-05-15T09:50:55;99692.63;;;20.34;100.00
43818;BME280;29868;47.360;18.984;2023-05-15T09:53:21;99689.50;;;20.48;100.00
43818;BME280;29868;47.360;18.984;2023-05-15T09:55:47;99693.22;;;20.92;100.00
43818;BME280;29868;47.360;18.984;2023-05-15T09:58:16;99694.09;;;20.68;100.00
43818;BME280;29868;47.360;18.984;2023-05-15T10:00:44;99697.91;;;21.07;100.00
43818;BME280;29868;47.360;18.984;2023-05-15T10:03:10;99705.44;;;21.18;100.00
43818;BME280;29868;47.360;18.984;2023-05-15T10:05:36;99698.78;;;20.84;100.00
43818;BME280;29868;47.360;18.984;2023-05-15T10:08:02;99697.94;;;20.82;100.00
43818;BME280;29868;47.360;18.984;2023-05-15T10:10:28;99699.50;;;21.11;100.00
43818;BME280;29868;47.360;18.984;2023-05-15T10:12:56;99705.72;;;21.78;100.00
43818;BME280;29868;47.360;18.984;2023-05-15T10:15:27;99701.16;;;21.81;100.00
43818;BME280;29868;47.360;18.984;2023-05-15T10:17:53;99697.41;;;21.87;100.00
43818;BME280;29868;47.360;18.984;2023-05-15T10:20:22;99693.84;;;22.30;100.00
43818;BME280;29868;47.360;18.984;2023-05-15T10:22:52;99705.06;;;21.93;100.00
43818;BME280;29868;47.360;18.984;2023-05-15T10:25:37;99715.34;;;22.23;100.00
43818;BME280;29868;47.360;18.984;2023-05-15T10:28:09;99706.88;;;22.55;100.00
43818;BME280;29868;47.360;18.984;2023-05-15T10:30:36;99710.84;;;22.25;100.00
43818;BME280;29868;47.360;18.984;2023-05-15T10:33:03;99702.59;;;22.10;100.00
43818;BME280;29868;47.360;18.984;2023-05-15T10:35:30;99706.47;;;21.37;100.00
43818;BME280;29868;47.360;18.984;2023-05-15T10:37:56;99713.53;;;21.81;100.00
43818;BME280;29868;47.360;18.984;2023-05-15T10:40:22;99725.53;;;22.32;100.00
43818;BME280;29868;47.360;18.984;2023-05-15T10:42:49;99716.72;;;21.45;100.00
43818;BME280;29868;47.360;18.984;2023-05-15T10:45:15;99716.28;;;21.78;100.00
43818;BME280;29868;47.360;18.984;2023-05-15T10:47:42;99710.63;;;22.09;100.00
43818;BME280;29868;47.360;18.984;2023-05-15T10:50:08;99712.00;;;21.97;100.00
43818;BME280;29868;47.360;18.984;2023-05-15T10:52:35;99715.53;;;21.96;100.00
43818;BME280;29868;47.360;18.984;2023-05-15T10:55:01;99709.72;;;21.44;100.00
43818;BME280;29868;47.360;18.984;2023-05-15T10:57:30;99706.31;;;21.84;100.00
43818;BME280;29868;47.360;18.984;2023-05-15T10:59:56;99710.34;;;21.73;100.00
43818;BME280;29868;47.360;18.984;2023-05-15T11:02:25;99701.91;;;21.85;100.00
43818;BME280;29868;47.360;18.984;2023-05-15T11:05:02;99704.19;;;21.27;100.00
43818;BME280;29868;47.360;18.984;2023-05-15T11:07:30;99704.19;;;21.50;100.00
43818;BME280;29868;47.360;18.984;2023-05-15T11:09:56;99703.16;;;22.19;100.00
43818;BME280;29868;47.360;18.984;2023-05-15T11:12:22;99707.53;;;22.40;100.00
43818;BME280;29868;47.360;18.984;2023-05-15T11:17:16;99698.34;;;21.42;100.00
43818;BME280;29868;47.360;18.984;2023-05-15T11:25:07;99686.44;;;21.30;100.00
43818;BME280;29868;47.360;18.984;2023-05-15T11:27:42;99697.44;;;21.65;100.00
43818;BME280;29868;47.360;18.984;2023-05-15T11:30:09;99697.97;;;21.73;100.00
43818;BME280;29868;47.360;18.984;2023-05-15T11:32:58;99695.72;;;21.86;100.00
43818;BME280;29868;47.360;18.984;2023-05-15T11:35:37;99686.78;;;21.67;100.00
43818;BME280;29868;47.360;18.984;2023-05-15T11:41:11;99693.13;;;21.41;98.41
43818;BME280;29868;47.360;18.984;2023-05-15T11:43:40;99679.69;;;21.23;100.00
43818;BME280;29868;47.360;18.984;2023-05-15T11:46:08;99683.84;;;21.52;99.41
43818;BME280;29868;47.360;18.984;2023-05-15T11:48:44;99675.88;;;21.96;100.00
43818;BME280;29868;47.360;18.984;2023-05-15T11:51:24;99673.75;;;22.47;100.00
43818;BME280;29868;47.360;18.984;2023-05-15T11:53:52;99674.41;;;22.71;100.00
43818;BME280;29868;47.360;18.984;2023-05-15T11:56:19;99685.44;;;23.01;95.08
43818;BME280;29868;47.360;18.984;2023-05-15T11:58:49;99682.44;;;22.49;90.74
43818;BME280;29868;47.360;18.984;2023-05-15T12:01:15;99683.09;;;22.74;92.16
43818;BME280;29868;47.360;18.984;2023-05-15T12:03:41;99679.06;;;23.24;90.78
43818;BME280;29868;47.360;18.984;2023-05-15T12:06:06;99687.75;;;22.69;82.39
43818;BME280;29868;47.360;18.984;2023-05-15T12:08:33;99686.63;;;22.54;88.59
43818;BME280;29868;47.360;18.984;2023-05-15T12:11:00;99695.03;;;22.23;92.75
43818;BME280;29868;47.360;18.984;2023-05-15T12:13:26;99693.97;;;22.27;90.68
43818;BME280;29868;47.360;18.984;2023-05-15T12:15:54;99683.91;;;21.93;92.82
43818;BME280;29868;47.360;18.984;2023-05-15T12:18:21;99690.03;;;21.95;93.99
43818;BME280;29868;47.360;18.984;2023-05-15T12:20:46;99690.13;;;21.50;92.24
43818;BME280;29868;47.360;18.984;2023-05-15T12:23:15;99682.31;;;21.23;98.20
43818;BME280;29868;47.360;18.984;2023-05-15T12:25:42;99691.75;;;21.07;99.16
43818;BME280;29868;47.360;18.984;2023-05-15T12:28:09;99698.94;;;20.80;100.00
43818;BME280;29868;47.360;18.984;2023-05-15T12:30:36;99709.06;;;20.42;100.00
43818;BME280;29868;47.360;18.984;2023-05-15T12:33:03;99698.59;;;19.87;100.00
43818;BME280;29868;47.360;18.984;2023-05-15T12:35:32;99704.22;;;19.49;100.00
43818;BME280;29868;47.360;18.984;2023-05-15T12:37:59;99693.94;;;19.41;100.00
43818;BME280;29868;47.360;18.984;2023-05-15T12:40:25;99700.81;;;19.45;100.00
43818;BME280;29868;47.360;18.984;2023-05-15T12:42:52;99699.13;;;19.42;100.00
43818;BME280;29868;47.360;18.984;2023-05-15T12:45:20;99701.53;;;19.22;100.00
43818;BME280;29868;47.360;18.984;2023-05-15T12:47:47;99702.75;;;19.10;100.00
43818;BME280;29868;47.360;18.984;2023-05-15T12:50:18;99686.94;;;19.40;100.00
43818;BME280;29868;47.360;18.984;2023-05-15T12:52:51;99676.00;;;19.52;100.00
43818;BME280;29868;47.360;18.984;2023-05-15T12:55:22;99671.09;;;19.41;100.00
43818;BME280;29868;47.360;18.984;2023-05-15T12:57:48;99669.31;;;19.97;100.00
43818;BME280;29868;47.360;18.984;2023-05-15T13:00:14;99657.75;;;20.26;100.00
43818;BME280;29868;47.360;18.984;2023-05-15T13:02:43;99656.81;;;20.77;100.00
43818;BME280;29868;47.360;18.984;2023-05-15T13:05:10;99653.03;;;20.84;100.00
43818;BME280;29868;47.360;18.984;2023-05-15T13:07:37;99668.78;;;21.54;100.00
43818;BME280;29868;47.360;18.984;2023-05-15T13:10:05;99667.63;;;21.61;100.00
43818;BME280;29868;47.360;18.984;2023-05-15T13:12:40;99671.50;;;21.95;100.00